Time;durP1;ratioP1;P1;durP2;ratioP2;P2;SDS_P1;SDS_P2;PMS_P1;PMS_P2;Temp;Humidity;BMP_temperature;BMP_pressure;BME280_temperature;BME280_humidity;BME280_pressure;Samples;Min_cycle;Max_cycle;Signal;HPM_P1;HPM_P2
2021/05/30 00:01:10;;;;;;;1999.90;999.90;;;12.80;99.90;;;;;;5047833;28;20182;-75
2021/05/30 00:03:36;;;;;;;1999.90;999.90;;;12.80;99.90;;;;;;5035242;28;20201;-75
2021/05/30 00:06:02;;;;;;;1999.90;999.90;;;12.80;99.90;;;;;;5033539;28;20184;-76
2021/05/30 00:08:27;;;;;;;1999.90;999.90;;;12.70;99.90;;;;;;5037418;28;20263;-75
2021/05/30 00:10:53;;;;;;;1999.90;999.90;;;12.70;99.90;;;;;;5042877;23;20227;-78
2021/05/30 00:13:19;;;;;;;1999.90;999.90;;;12.60;99.90;;;;;;5000935;28;20178;-78
2021/05/30 00:15:46;;;;;;;1999.90;999.90;;;12.50;99.90;;;;;;5005061;28;20183;-77
2021/05/30 00:18:12;;;;;;;1999.90;999.90;;;12.50;99.90;;;;;;5002707;28;20187;-77
2021/05/30 00:20:38;;;;;;;1999.90;999.90;;;12.50;99.90;;;;;;4992803;28;20281;-77
2021/05/30 00:23:04;;;;;;;1999.90;999.90;;;12.50;99.90;;;;;;4979236;28;20196;-78
2021/05/30 00:25:29;;;;;;;1999.90;999.90;;;12.40;99.90;;;;;;4981991;28;20176;-78
2021/05/30 00:27:56;;;;;;;1999.90;999.90;;;12.40;99.90;;;;;;4981127;28;20176;-78
2021/05/30 00:30:21;;;;;;;1999.90;999.90;;;12.40;99.90;;;;;;4981400;28;20219;-77
2021/05/30 00:32:47;;;;;;;1999.90;999.90;;;12.40;99.90;;;;;;4979929;28;20176;-77
2021/05/30 00:35:13;;;;;;;1999.90;999.90;;;12.40;99.90;;;;;;4981066;28;20172;-77
2021/05/30 00:37:38;;;;;;;1999.90;999.90;;;12.40;99.90;;;;;;4995922;28;20231;-77
2021/05/30 00:40:05;;;;;;;1999.90;999.90;;;12.40;99.90;;;;;;4979807;28;20204;-78
2021/05/30 00:42:31;;;;;;;1999.90;999.90;;;12.40;99.90;;;;;;4981183;28;20764;-77
2021/05/30 00:44:56;;;;;;;1999.90;999.90;;;12.40;99.90;;;;;;4980782;28;20182;-78
2021/05/30 00:47:22;;;;;;;1999.90;999.90;;;12.30;99.90;;;;;;4981201;28;20180;-78
2021/05/30 00:49:47;;;;;;;1999.90;999.90;;;12.30;99.90;;;;;;4981073;28;20172;-78
2021/05/30 00:52:13;;;;;;;1999.90;999.90;;;12.30;99.90;;;;;;4980544;28;20195;-77
2021/05/30 00:54:39;;;;;;;1999.90;999.90;;;12.30;99.90;;;;;;4980657;28;20232;-77
2021/05/30 00:57:09;;;;;;;1999.90;999.90;;;12.30;99.90;;;;;;4979409;28;20183;-78
2021/05/30 00:59:35;;;;;;;1999.90;999.90;;;12.30;99.90;;;;;;4980049;28;20558;-78
2021/05/30 01:02:01;;;;;;;1999.90;999.90;;;12.30;99.90;;;;;;4979924;28;20200;-78
2021/05/30 01:04:27;;;;;;;1999.90;999.90;;;12.30;99.90;;;;;;4978771;28;20551;-77
2021/05/30 01:06:56;;;;;;;1999.90;999.90;;;12.30;99.90;;;;;;4979930;28;20169;-77
2021/05/30 01:09:23;;;;;;;1999.90;999.90;;;12.40;99.90;;;;;;4980321;28;20662;-77
2021/05/30 01:11:50;;;;;;;1999.90;999.90;;;12.30;99.90;;;;;;4980082;28;20203;-76
2021/05/30 01:14:16;;;;;;;1999.90;999.90;;;12.30;99.90;;;;;;4979125;28;20632;-77
2021/05/30 01:16:42;;;;;;;1999.90;999.90;;;12.20;99.90;;;;;;4980155;28;20188;-77
2021/05/30 01:19:10;;;;;;;1999.90;999.90;;;12.20;99.90;;;;;;4979996;28;20200;-77
2021/05/30 01:21:36;;;;;;;1999.90;999.90;;;12.10;99.90;;;;;;4984268;28;20200;-77
2021/05/30 01:24:02;;;;;;;1999.90;999.90;;;12.10;99.90;;;;;;5004242;28;20207;-78
2021/05/30 01:26:27;;;;;;;1999.90;999.90;;;12.10;99.90;;;;;;4978660;28;20180;-78
2021/05/30 01:28:53;;;;;;;1999.90;999.90;;;12.00;99.90;;;;;;4980080;28;20180;-78
2021/05/30 01:31:20;;;;;;;1999.90;999.90;;;12.00;99.90;;;;;;4979303;28;20200;-78
2021/05/30 01:33:45;;;;;;;1999.90;999.90;;;11.90;99.90;;;;;;4979600;28;20669;-77
2021/05/30 01:36:11;;;;;;;1999.90;999.90;;;12.00;99.90;;;;;;4980079;28;20184;-78
2021/05/30 01:38:37;;;;;;;1999.90;999.90;;;11.90;99.90;;;;;;4978013;28;20583;-77
2021/05/30 01:41:04;;;;;;;1999.90;999.90;;;11.90;99.90;;;;;;4978355;28;20288;-77
2021/05/30 01:43:30;;;;;;;1999.90;999.90;;;11.90;99.90;;;;;;4979900;28;20197;-77
2021/05/30 01:45:56;;;;;;;1999.90;999.90;;;11.80;99.90;;;;;;4978099;28;20184;-77
2021/05/30 01:48:21;;;;;;;1999.90;999.90;;;11.80;99.90;;;;;;4980122;28;20176;-77
2021/05/30 01:50:47;;;;;;;1999.90;999.90;;;11.80;99.90;;;;;;4978352;28;20192;-77
2021/05/30 01:53:24;;;;;;;1999.90;999.90;;;11.80;99.90;;;;;;4979427;28;20267;-77
2021/05/30 01:56:55;;;;;;;1999.90;999.90;;;11.80;99.90;;;;;;4979774;28;20517;-77
2021/05/30 01:58:40;;;;;;;1999.90;999.90;;;11.80;99.90;;;;;;4975137;28;20184;-77
2021/05/30 02:01:06;;;;;;;1999.90;999.90;;;11.70;99.90;;;;;;4974674;28;20196;-76
2021/05/30 02:03:32;;;;;;;1999.90;999.90;;;11.70;99.90;;;;;;4974707;28;20207;-77
2021/05/30 02:05:59;;;;;;;1999.90;999.90;;;11.70;99.90;;;;;;4974764;28;20235;-77
2021/05/30 02:08:25;;;;;;;1999.90;999.90;;;11.70;99.90;;;;;;4974906;28;20638;-77
2021/05/30 02:10:51;;;;;;;1999.90;999.90;;;11.70;99.90;;;;;;4974811;28;20241;-76
2021/05/30 02:13:18;;;;;;;1999.90;999.90;;;11.70;99.90;;;;;;4978453;28;20189;-77
2021/05/30 02:15:45;;;;;;;1999.90;999.90;;;11.60;99.90;;;;;;4975997;28;20180;-79
2021/05/30 02:18:11;;;;;;;1999.90;999.90;;;11.50;99.90;;;;;;4975666;28;20671;-77
2021/05/30 02:20:40;;;;;;;1999.90;999.90;;;11.50;99.90;;;;;;4975444;28;20199;-78
2021/05/30 02:23:12;;;;;;;1999.90;999.90;;;11.40;99.90;;;;;;4976242;28;20192;-78
2021/05/30 02:25:38;;;;;;;1999.90;999.90;;;11.30;99.90;;;;;;4984315;28;20692;-78
2021/05/30 02:28:04;;;;;;;1999.90;999.90;;;11.30;99.90;;;;;;4975047;28;20263;-78
2021/05/30 02:30:29;;;;;;;1999.90;999.90;;;11.30;99.90;;;;;;4972792;28;20207;-78
2021/05/30 02:32:55;;;;;;;1999.90;999.90;;;11.30;99.90;;;;;;4992166;28;20184;-79
2021/05/30 02:35:22;;;;;;;1999.90;999.90;;;11.30;99.90;;;;;;4977476;28;20723;-78
2021/05/30 02:37:48;;;;;;;1999.90;999.90;;;11.30;99.90;;;;;;4974213;28;20231;-77
2021/05/30 02:40:14;;;;;;;1999.90;999.90;;;11.20;99.90;;;;;;4974322;28;20200;-79
2021/05/30 02:42:40;;;;;;;1999.90;999.90;;;11.20;99.90;;;;;;4975803;28;20193;-78
2021/05/30 02:45:07;;;;;;;1999.90;999.90;;;11.10;99.90;;;;;;4981012;28;20255;-78
2021/05/30 02:47:33;;;;;;;1999.90;999.90;;;11.10;99.90;;;;;;4980878;28;20599;-78
2021/05/30 02:50:00;;;;;;;1999.90;999.90;;;11.00;99.90;;;;;;4982039;28;20164;-78
2021/05/30 02:52:26;;;;;;;1999.90;999.90;;;11.40;99.90;;;;;;4978402;28;20260;-77
2021/05/30 02:54:52;;;;;;;1999.90;999.90;;;;;;;;;;4977301;28;20179;-77
2021/05/30 02:57:18;;;;;;;1999.90;999.90;;;11.00;99.90;;;;;;4978417;28;20176;-77
2021/05/30 02:59:43;;;;;;;1999.90;999.90;;;10.80;99.90;;;;;;4980576;28;20180;-76
2021/05/30 03:02:09;;;;;;;1999.90;999.90;;;10.70;99.90;;;;;;4978343;28;20200;-76
2021/05/30 03:04:35;;;;;;;1999.90;999.90;;;10.70;99.90;;;;;;4977045;28;20172;-77
2021/05/30 03:07:00;;;;;;;1999.90;999.90;;;10.50;99.90;;;;;;4979475;28;20661;-78
2021/05/30 03:09:26;;;;;;;1999.90;999.90;;;10.40;99.90;;;;;;4981956;28;20173;-77
2021/05/30 03:11:53;;;;;;;1999.90;999.90;;;10.30;99.90;;;;;;4981144;28;20242;-77
2021/05/30 03:14:18;;;;;;;1999.90;999.90;;;10.20;99.90;;;;;;4981508;28;20169;-79
2021/05/30 03:16:44;;;;;;;1999.90;999.90;;;10.20;99.90;;;;;;4978551;28;20180;-77
2021/05/30 03:19:09;;;;;;;1999.90;999.90;;;10.20;99.90;;;;;;4997108;28;20233;-76
2021/05/30 03:21:35;;;;;;;1999.90;999.90;;;10.20;99.90;;;;;;4995059;28;20602;-77
2021/05/30 03:24:03;;;;;;;1999.90;999.90;;;10.10;99.90;;;;;;4980346;28;20193;-78
2021/05/30 03:26:28;;;;;;;1999.90;999.90;;;10.10;99.90;;;;;;4981628;28;20536;-77
2021/05/30 03:28:54;;;;;;;1999.90;999.90;;;10.10;99.90;;;;;;4981409;28;20187;-77
2021/05/30 03:31:20;;;;;;;1999.90;999.90;;;10.10;99.90;;;;;;4981048;28;20204;-78
2021/05/30 03:33:46;;;;;;;1999.90;999.90;;;10.10;99.90;;;;;;4996148;28;20528;-77
2021/05/30 03:36:16;;;;;;;1999.90;999.90;;;10.10;99.90;;;;;;4980859;28;20210;-78
2021/05/30 03:38:42;;;;;;;1999.90;999.90;;;10.10;99.90;;;;;;4981392;28;20172;-78
2021/05/30 03:41:11;;;;;;;1999.90;999.90;;;10.10;99.90;;;;;;4981159;28;20200;-78
2021/05/30 03:43:39;;;;;;;1999.90;999.90;;;10.10;99.90;;;;;;4981300;28;20191;-78
2021/05/30 03:46:05;;;;;;;1999.90;999.90;;;10.10;99.90;;;;;;4975259;28;20172;-78
2021/05/30 03:48:30;;;;;;;1999.90;999.90;;;10.00;99.90;;;;;;4980959;28;20231;-77
2021/05/30 03:50:56;;;;;;;1999.90;999.90;;;10.00;99.90;;;;;;4995580;28;20256;-78
2021/05/30 03:53:22;;;;;;;1999.90;999.90;;;9.90;99.90;;;;;;4980851;28;20655;-78
2021/05/30 03:55:49;;;;;;;1999.90;999.90;;;9.90;99.90;;;;;;4979484;28;20248;-79
2021/05/30 03:58:15;;;;;;;1999.90;999.90;;;9.90;99.90;;;;;;4977230;28;20691;-78
2021/05/30 04:00:42;;;;;;;1999.90;999.90;;;9.90;99.90;;;;;;4975609;28;20208;-79
2021/05/30 04:03:08;;;;;;;1999.90;999.90;;;9.90;99.90;;;;;;4995176;28;20196;-77
2021/05/30 04:05:34;;;;;;;1999.90;999.90;;;9.90;99.90;;;;;;4980288;28;20181;-79
2021/05/30 04:07:59;;;;;;;1999.90;999.90;;;9.90;99.90;;;;;;4980201;28;20171;-78
2021/05/30 04:10:26;;;;;;;1999.90;999.90;;;9.90;99.90;;;;;;4978302;28;20826;-78
2021/05/30 04:12:52;;;;;;;1999.90;999.90;;;10.00;99.90;;;;;;4980566;28;20263;-78
2021/05/30 04:15:19;;;;;;;1999.90;999.90;;;10.00;99.90;;;;;;4979094;28;20175;-79
2021/05/30 04:17:44;;;;;;;1999.90;999.90;;;10.00;99.90;;;;;;4978978;28;20211;-77
2021/05/30 04:20:13;;;;;;;1999.90;999.90;;;10.00;99.90;;;;;;4979826;28;20208;-78
2021/05/30 04:22:39;;;;;;;1999.90;999.90;;;9.90;99.90;;;;;;4980594;28;20251;-77
2021/05/30 04:25:07;;;;;;;1999.90;999.90;;;9.90;99.90;;;;;;4980136;28;20270;-78
2021/05/30 04:27:32;;;;;;;1999.90;999.90;;;10.00;99.90;;;;;;4980227;28;20251;-79
2021/05/30 04:29:59;;;;;;;1999.90;999.90;;;10.00;99.90;;;;;;4980547;28;20248;-77
2021/05/30 04:32:25;;;;;;;1999.90;999.90;;;10.10;99.90;;;;;;4992642;28;20267;-77
2021/05/30 04:34:50;;;;;;;1999.90;999.90;;;10.10;99.90;;;;;;5004462;28;20733;-78
2021/05/30 04:37:16;;;;;;;1999.90;999.90;;;10.00;99.90;;;;;;4977340;28;20172;-77
2021/05/30 04:39:42;;;;;;;1999.90;999.90;;;10.00;99.90;;;;;;4976122;28;20183;-77
2021/05/30 04:42:08;;;;;;;1999.90;999.90;;;10.10;99.90;;;;;;4978190;28;20212;-78
2021/05/30 04:44:34;;;;;;;1999.90;999.90;;;10.20;99.90;;;;;;4978919;28;20296;-79
2021/05/30 04:47:00;;;;;;;1999.90;999.90;;;10.40;99.90;;;;;;4983050;28;20200;-78
2021/05/30 04:49:26;;;;;;;1999.90;999.90;;;10.40;99.90;;;;;;4983197;28;20171;-78
2021/05/30 04:51:52;;;;;;;1999.90;999.90;;;10.70;99.90;;;;;;4978579;28;20247;-78
2021/05/30 04:54:18;;;;;;;1999.90;999.90;;;10.80;99.90;;;;;;4976264;28;20207;-77
2021/05/30 04:56:44;;;;;;;1999.90;999.90;;;10.90;99.90;;;;;;4976749;28;20208;-76
2021/05/30 04:59:09;;;;;;;1999.90;999.90;;;11.10;99.90;;;;;;4975816;28;20176;-77
2021/05/30 05:01:35;;;;;;;1999.90;999.90;;;11.10;99.90;;;;;;4974530;28;20193;-77
2021/05/30 05:04:02;;;;;;;1999.90;999.90;;;11.30;99.90;;;;;;4973907;28;20664;-77
2021/05/30 05:06:27;;;;;;;1999.90;999.90;;;11.30;99.90;;;;;;4973696;28;20640;-77
2021/05/30 05:08:53;;;;;;;1999.90;999.90;;;11.40;99.90;;;;;;4974115;28;20180;-77
2021/05/30 05:11:19;;;;;;;1999.90;999.90;;;11.40;99.90;;;;;;4974292;28;20200;-77
2021/05/30 05:13:45;;;;;;;1999.90;999.90;;;11.40;99.90;;;;;;4959134;28;20180;-77
2021/05/30 05:16:10;;;;;;;1999.90;999.90;;;11.60;99.90;;;;;;4970760;28;20225;-77
2021/05/30 05:18:36;;;;;;;1999.90;999.90;;;11.70;99.90;;;;;;4966214;28;20186;-77
2021/05/30 05:21:03;;;;;;;1999.90;999.90;;;11.80;99.90;;;;;;4987860;28;20203;-78
2021/05/30 05:23:29;;;;;;;1999.90;999.90;;;11.90;99.90;;;;;;4988886;28;20194;-77
2021/05/30 05:26:01;;;;;;;1999.90;999.90;;;12.00;99.90;;;;;;4974335;28;20176;-78
2021/05/30 05:28:27;;;;;;;1999.90;999.90;;;12.10;99.90;;;;;;4973845;28;20177;-78
2021/05/30 05:30:53;;;;;;;1999.90;999.90;;;12.20;99.90;;;;;;4988709;28;20204;-77
2021/05/30 05:33:19;;;;;;;1999.90;999.90;;;12.30;99.90;;;;;;4974045;28;20204;-78
2021/05/30 05:35:44;;;;;;;1999.90;999.90;;;12.40;99.90;;;;;;4973281;28;20545;-77
2021/05/30 05:38:10;;;;;;;1999.90;999.90;;;12.40;99.90;;;;;;4971809;28;20172;-77
2021/05/30 05:40:36;;;;;;;1999.90;999.90;;;12.50;99.90;;;;;;4987864;28;20200;-78
2021/05/30 05:43:04;;;;;;;1999.90;999.90;;;12.70;99.90;;;;;;4972942;28;20262;-78
2021/05/30 05:45:30;;;;;;;1999.90;999.90;;;12.80;99.90;;;;;;4973090;28;20169;-77
2021/05/30 05:47:55;;;;;;;1999.90;999.90;;;12.90;99.90;;;;;;4973150;28;20177;-77
2021/05/30 05:50:23;;;;;;;1999.90;999.90;;;12.90;99.90;;;;;;4987821;28;20571;-77
2021/05/30 05:52:50;;;;;;;1999.90;999.90;;;12.90;99.90;;;;;;4973440;28;20235;-78
2021/05/30 05:55:16;;;;;;;1999.90;999.90;;;13.00;99.90;;;;;;4973344;28;20176;-78
2021/05/30 05:57:43;;;;;;;1999.90;999.90;;;13.00;99.90;;;;;;4972180;28;20188;-77
2021/05/30 06:00:16;;;;;;;1999.90;999.90;;;13.20;99.90;;;;;;4972945;28;20643;-76
2021/05/30 06:02:42;;;;;;;1999.90;999.90;;;13.20;99.90;;;;;;4975680;28;20204;-77
2021/05/30 06:05:09;;;;;;;1999.90;999.90;;;13.20;99.90;;;;;;4973637;28;20219;-77
2021/05/30 06:07:36;;;;;;;1999.90;999.90;;;13.20;99.90;;;;;;4972916;28;20173;-77
2021/05/30 06:10:04;;;;;;;1999.90;999.90;;;13.30;99.90;;;;;;4972385;28;20207;-78
2021/05/30 06:12:30;;;;;;;1999.90;999.90;;;13.40;99.90;;;;;;5003619;23;20314;-79
2021/05/30 06:14:55;;;;;;;1999.90;999.90;;;13.40;99.90;;;;;;5000448;28;20176;-79
2021/05/30 06:17:22;;;;;;;1999.90;999.90;;;13.50;99.90;;;;;;4975024;28;20926;-80
2021/05/30 06:19:48;;;;;;;1999.90;999.90;;;13.60;99.90;;;;;;4992103;28;20164;-80
2021/05/30 06:22:16;;;;;;;1999.90;999.90;;;13.60;99.90;;;;;;4968559;28;20307;-79
2021/05/30 06:24:42;;;;;;;1999.90;999.90;;;13.70;99.90;;;;;;4984272;28;20176;-80
2021/05/30 06:27:08;;;;;;;1999.90;999.90;;;13.70;99.90;;;;;;4995948;28;20225;-80
2021/05/30 06:29:34;;;;;;;1999.90;999.90;;;13.80;99.90;;;;;;4984104;28;20200;-77
2021/05/30 06:31:59;;;;;;;1999.90;999.90;;;13.80;99.90;;;;;;4962068;28;20201;-78
2021/05/30 06:34:26;;;;;;;1999.90;999.90;;;13.80;99.90;;;;;;4976724;28;20173;-78
2021/05/30 06:36:52;;;;;;;1999.90;999.90;;;13.70;99.90;;;;;;4964059;28;20211;-78
2021/05/30 06:39:19;;;;;;;1999.90;999.90;;;13.70;99.90;;;;;;4963121;28;20168;-78
2021/05/30 06:41:44;;;;;;;1999.90;999.90;;;13.80;99.90;;;;;;4962927;28;20200;-78
2021/05/30 06:44:10;;;;;;;1999.90;999.90;;;13.90;99.90;;;;;;4979954;28;20208;-79
2021/05/30 06:46:36;;;;;;;1999.90;999.90;;;13.90;99.90;;;;;;4980536;28;20177;-78
2021/05/30 06:49:03;;;;;;;1999.90;999.90;;;14.00;99.90;;;;;;4980742;28;20174;-78
2021/05/30 06:51:31;;;;;;;1999.90;999.90;;;14.00;99.90;;;;;;4979850;28;20191;-78
2021/05/30 06:53:58;;;;;;;1999.90;999.90;;;14.20;99.90;;;;;;4961542;28;20205;-79
2021/05/30 06:56:24;;;;;;;1999.90;999.90;;;14.30;99.90;;;;;;4983394;28;20188;-78
2021/05/30 06:58:50;;;;;;;1999.90;999.90;;;14.30;99.90;;;;;;4999710;28;20679;-78
2021/05/30 07:01:19;;;;;;;1999.90;999.90;;;14.40;99.90;;;;;;4984400;28;20172;-78
2021/05/30 07:03:46;;;;;;;1999.90;999.90;;;14.50;99.90;;;;;;4979273;28;20200;-79
2021/05/30 07:06:12;;;;;;;1999.90;999.90;;;14.60;99.90;;;;;;4979929;28;20168;-78
2021/05/30 07:08:38;;;;;;;1999.90;999.90;;;14.80;99.90;;;;;;4980153;28;20179;-78
2021/05/30 07:11:04;;;;;;;1999.90;999.90;;;14.80;99.90;;;;;;4979613;28;20169;-78
2021/05/30 07:13:29;;;;;;;1999.90;999.90;;;14.90;99.90;;;;;;4981491;28;20212;-78
2021/05/30 07:15:55;;;;;;;1999.90;999.90;;;14.90;99.90;;;;;;4970814;28;20204;-78
2021/05/30 07:18:22;;;;;;;1999.90;999.90;;;15.10;99.90;;;;;;4985658;28;20180;-85
2021/05/30 07:20:51;;;;;;;1999.90;999.90;;;15.20;99.90;;;;;;4968754;28;20260;-85
2021/05/30 07:23:17;;;;;;;1999.90;999.90;;;15.30;99.90;;;;;;5000787;28;20227;-85
2021/05/30 07:25:43;;;;;;;1999.90;999.90;;;15.30;99.90;;;;;;4968932;28;20176;-86
2021/05/30 07:28:09;;;;;;;1999.90;999.90;;;15.30;99.90;;;;;;4968947;28;20184;-85
2021/05/30 07:30:35;;;;;;;1999.90;999.90;;;15.30;99.90;;;;;;4988093;28;20251;-84
2021/05/30 07:33:01;;;;;;;1999.90;999.90;;;15.50;99.90;;;;;;4973081;28;20193;-86
2021/05/30 07:35:28;;;;;;;1999.90;999.90;;;15.50;99.90;;;;;;4986766;28;20179;-85
2021/05/30 07:37:55;;;;;;;1999.90;999.90;;;15.60;99.90;;;;;;4969906;28;20203;-85
2021/05/30 07:40:22;;;;;;;1999.90;999.90;;;15.60;99.90;;;;;;4987080;28;20204;-85
2021/05/30 07:42:48;;;;;;;1999.90;999.90;;;15.60;99.90;;;;;;4968622;28;20224;-85
2021/05/30 07:45:15;;;;;;;1999.90;999.90;;;15.50;99.90;;;;;;4986290;28;20169;-85
2021/05/30 07:47:41;;;;;;;1999.90;999.90;;;15.60;99.90;;;;;;4986810;28;20180;-85
2021/05/30 07:50:09;;;;;;;1999.90;999.90;;;15.70;99.90;;;;;;4997380;28;20179;-85
2021/05/30 07:52:35;;;;;;;1999.90;999.90;;;15.80;99.90;;;;;;4992118;28;20192;-85
2021/05/30 07:55:04;;;;;;;1999.90;999.90;;;15.90;99.90;;;;;;4978616;28;20676;-85
2021/05/30 07:57:30;;;;;;;1999.90;999.90;;;16.00;99.90;;;;;;4982558;28;20227;-85
2021/05/30 07:59:56;;;;;;;1999.90;999.90;;;16.00;99.90;;;;;;4993364;28;20180;-85
2021/05/30 08:02:23;;;;;;;1999.90;999.90;;;16.20;99.90;;;;;;4974987;28;20214;-85
2021/05/30 08:04:49;;;;;;;1999.90;999.90;;;16.20;99.90;;;;;;5000603;28;20176;-85
2021/05/30 08:07:14;;;;;;;1999.90;999.90;;;16.30;99.90;;;;;;4996175;28;20172;-85
2021/05/30 08:09:40;;;;;;;1999.90;999.90;;;16.40;99.90;;;;;;4990444;28;20232;-85
2021/05/30 08:12:06;;;;;;;1999.90;999.90;;;16.40;99.90;;;;;;4977880;28;20207;-84
2021/05/30 08:14:32;;;;;;;1999.90;999.90;;;16.40;99.90;;;;;;4982530;28;20187;-85
2021/05/30 08:16:58;;;;;;;1999.90;999.90;;;16.40;99.90;;;;;;4992931;28;20179;-85
2021/05/30 08:19:24;;;;;;;1999.90;999.90;;;16.40;99.90;;;;;;4992374;28;20175;-85
2021/05/30 08:21:50;;;;;;;1999.90;999.90;;;16.60;99.90;;;;;;4981471;28;20193;-85
2021/05/30 08:24:16;;;;;;;1999.90;999.90;;;16.60;99.90;;;;;;4985937;28;20198;-86
2021/05/30 08:26:43;;;;;;;1999.90;999.90;;;16.70;99.90;;;;;;4974424;28;20173;-84
2021/05/30 08:29:09;;;;;;;1999.90;999.90;;;16.80;99.90;;;;;;4962409;28;20197;-87
2021/05/30 08:31:34;;;;;;;1999.90;999.90;;;16.90;99.90;;;;;;4985773;28;20527;-86
2021/05/30 08:34:00;;;;;;;1999.90;999.90;;;17.00;99.90;;;;;;4990905;28;20642;-86
2021/05/30 08:36:27;;;;;;;1999.90;999.90;;;16.90;99.90;;;;;;4978940;28;20181;-86
2021/05/30 08:38:53;;;;;;;1999.90;999.90;;;17.00;99.90;;;;;;4989326;28;20180;-88
2021/05/30 08:41:20;;;;;;;1999.90;999.90;;;16.90;99.90;;;;;;4980690;28;20234;-86
2021/05/30 08:43:45;;;;;;;1999.90;999.90;;;17.00;99.90;;;;;;4986159;28;20214;-86
2021/05/30 08:46:11;;;;;;;1999.90;999.90;;;17.30;99.90;;;;;;4991928;28;20172;-86
2021/05/30 08:48:37;;;;;;;1999.90;999.90;;;17.30;99.90;;;;;;4993381;28;20180;-85
2021/05/30 08:51:06;;;;;;;1999.90;999.90;;;17.30;99.90;;;;;;4972736;28;20171;-87
2021/05/30 08:53:37;;;;;;;1999.90;999.90;;;17.30;99.90;;;;;;4976901;28;20210;-87
2021/05/30 08:56:05;;;;;;;1999.90;999.90;;;17.10;99.90;;;;;;4967943;28;20172;-86
2021/05/30 08:58:42;;;;;;;1999.90;999.90;;;17.20;99.90;;;;;;4994672;28;20195;-86
2021/05/30 09:01:14;;;;;;;1999.90;999.90;;;17.30;99.90;;;;;;4991277;28;20170;-86
2021/05/30 09:04:05;;;;;;;1999.90;999.90;;;17.30;99.90;;;;;;4977275;28;20197;-85
2021/05/30 09:06:32;;;;;;;1999.90;999.90;;;17.40;99.90;;;;;;4967458;28;20242;-86
2021/05/30 09:08:58;;;;;;;1999.90;999.90;;;17.60;99.90;;;;;;4984491;28;20292;-85
2021/05/30 09:11:43;;;;;;;1999.90;999.90;;;17.60;99.90;;;;;;4966824;28;20279;-86
2021/05/30 09:14:31;;;;;;;1999.90;999.90;;;17.70;99.90;;;;;;4974027;28;20178;-86
2021/05/30 09:17:03;;;;;;;1999.90;999.90;;;17.70;99.90;;;;;;4978139;28;20204;-87
2021/05/30 09:19:37;;;;;;;1999.90;999.90;;;17.70;99.90;;;;;;4985227;28;20176;-87
2021/05/30 09:22:29;;;;;;;1999.90;999.90;;;17.80;99.90;;;;;;4968512;28;20576;-87
2021/05/30 09:25:10;;;;;;;1999.90;999.90;;;17.80;99.90;;;;;;4962833;28;20544;-87
2021/05/30 09:28:00;;;;;;;1999.90;999.90;;;17.90;99.90;;;;;;4969159;28;20251;-87
2021/05/30 09:30:37;;;;;;;1999.90;999.90;;;18.00;99.90;;;;;;4967041;28;20232;-85
2021/05/30 09:33:09;;;;;;;1999.90;999.90;;;18.20;99.90;;;;;;4983358;28;20192;-86
2021/05/30 09:35:37;;;;;;;1999.90;999.90;;;18.40;99.90;;;;;;4985206;28;20180;-85
2021/05/30 09:38:28;;;;;;;1999.90;999.90;;;18.30;99.90;;;;;;4968088;28;20204;-85
2021/05/30 09:40:59;;;;;;;1999.90;999.90;;;18.30;99.90;;;;;;4981189;28;20176;-86
2021/05/30 09:43:36;;;;;;;1999.90;999.90;;;18.20;99.90;;;;;;4967274;28;20548;-86
2021/05/30 09:46:04;;;;;;;1999.90;999.90;;;18.30;99.90;;;;;;4966574;28;20663;-86
2021/05/30 09:48:30;;;;;;;1999.90;999.90;;;18.60;99.90;;;;;;4966806;28;20176;-86
2021/05/30 09:51:08;;;;;;;1999.90;999.90;;;18.60;99.90;;;;;;4965974;28;20169;-85
2021/05/30 09:53:41;;;;;;;1999.90;999.90;;;18.80;99.90;;;;;;4965554;28;20207;-87
2021/05/30 09:56:24;;;;;;;1999.90;999.90;;;18.70;99.90;;;;;;4966432;28;20196;-86
2021/05/30 09:58:54;;;;;;;1999.90;999.90;;;18.70;99.90;;;;;;4994449;28;20183;-86
2021/05/30 10:01:20;;;;;;;1999.90;999.90;;;18.70;99.90;;;;;;4983178;28;20184;-87
2021/05/30 10:03:46;;;;;;;1999.90;999.90;;;18.70;99.90;;;;;;4983189;28;20199;-87
2021/05/30 10:06:13;;;;;;;1999.90;999.90;;;18.80;99.90;;;;;;4965534;28;20259;-86
2021/05/30 10:08:39;;;;;;;1999.90;999.90;;;18.70;99.90;;;;;;4983105;28;20168;-87
2021/05/30 10:11:05;;;;;;;1999.90;999.90;;;18.60;99.90;;;;;;4997023;28;20199;-87
2021/05/30 10:13:31;;;;;;;1999.90;999.90;;;18.50;99.90;;;;;;4981935;28;20218;-84
2021/05/30 10:15:59;;;;;;;1999.90;999.90;;;18.70;99.90;;;;;;4982777;28;20169;-86
2021/05/30 10:18:36;;;;;;;1999.90;999.90;;;18.70;99.90;;;;;;4989671;28;20175;-87
2021/05/30 10:21:04;;;;;;;1999.90;999.90;;;18.60;99.90;;;;;;4988888;28;20184;-84
2021/05/30 10:23:31;;;;;;;1999.90;999.90;;;18.80;99.90;;;;;;4989462;28;20573;-88
2021/05/30 10:26:18;;;;;;;1999.90;999.90;;;19.00;99.90;;;;;;4992705;28;20169;-85
2021/05/30 10:28:50;;;;;;;1999.90;999.90;;;19.20;99.60;;;;;;4997271;28;20168;-85
2021/05/30 10:31:20;;;;;;;1999.90;999.90;;;19.10;98.90;;;;;;4993374;28;20172;-85
2021/05/30 10:34:22;;;;;;;1999.90;999.90;;;18.90;97.80;;;;;;4985582;28;20176;-86
2021/05/30 10:36:57;;;;;;;1999.90;999.90;;;18.90;99.60;;;;;;4965460;28;20235;-85
2021/05/30 10:39:28;;;;;;;1999.90;999.90;;;19.00;98.20;;;;;;4983723;28;20183;-86
2021/05/30 10:42:16;;;;;;;1999.90;999.90;;;19.00;98.60;;;;;;4965555;28;20200;-85
2021/05/30 10:44:52;;;;;;;1999.90;999.90;;;19.10;98.40;;;;;;4982295;28;20195;-85
2021/05/30 10:47:19;;;;;;;1999.90;999.90;;;19.20;98.80;;;;;;4983405;28;20238;-86
2021/05/30 10:50:15;;;;;;;1999.90;999.90;;;19.40;97.80;;;;;;4965352;28;20176;-86
2021/05/30 10:52:42;;;;;;;1999.90;999.90;;;19.60;96.90;;;;;;4964593;28;20200;-86
2021/05/30 10:55:19;;;;;;;1999.90;999.90;;;19.60;95.90;;;;;;4982021;28;20180;-87
2021/05/30 10:57:47;;;;;;;1999.90;999.90;;;19.50;96.70;;;;;;4983254;28;20590;-85
2021/05/30 11:00:19;;;;;;;1999.90;999.90;;;19.50;96.90;;;;;;4982654;28;20723;-86
2021/05/30 11:03:03;;;;;;;1999.90;999.90;;;19.50;96.40;;;;;;4985118;28;20239;-85
2021/05/30 11:05:54;;;;;;;1999.90;999.90;;;19.50;95.50;;;;;;4992330;28;20177;-86
2021/05/30 11:08:32;;;;;;;1999.90;999.90;;;19.50;95.60;;;;;;4957665;28;20174;-86
2021/05/30 11:11:16;;;;;;;1999.90;999.90;;;19.50;95.40;;;;;;4986542;28;20184;-86
2021/05/30 11:13:59;;;;;;;1999.90;999.90;;;19.40;94.90;;;;;;4988034;28;20212;-86
2021/05/30 11:16:34;;;;;;;1999.90;999.90;;;19.40;95.10;;;;;;4989825;28;20524;-86
2021/05/30 11:19:09;;;;;;;1999.90;999.90;;;19.40;96.00;;;;;;4996099;28;20183;-85
2021/05/30 11:21:38;;;;;;;1999.90;999.90;;;19.70;95.60;;;;;;4988857;28;20192;-85
2021/05/30 11:24:06;;;;;;;1999.90;999.90;;;19.70;95.20;;;;;;4968892;28;20207;-87
2021/05/30 11:26:32;;;;;;;1999.90;999.90;;;19.80;94.00;;;;;;4990548;28;20176;-86
2021/05/30 11:28:59;;;;;;;1999.90;999.90;;;19.70;94.10;;;;;;4972534;28;20179;-86
2021/05/30 11:31:25;;;;;;;1999.90;999.90;;;19.80;96.10;;;;;;4994684;28;20168;-86
2021/05/30 11:34:07;;;;;;;1999.90;999.90;;;19.90;95.30;;;;;;4967739;28;20248;-86
2021/05/30 11:36:37;;;;;;;1999.90;999.90;;;19.80;94.70;;;;;;4987161;28;20522;-86
2021/05/30 11:39:09;;;;;;;1999.90;999.90;;;19.80;94.60;;;;;;4968180;28;20169;-86
2021/05/30 11:41:57;;;;;;;1999.90;999.90;;;19.70;94.90;;;;;;4985437;28;20240;-85
2021/05/30 11:44:25;;;;;;;1999.90;999.90;;;19.70;94.60;;;;;;4986195;28;20199;-85
2021/05/30 11:46:56;;;;;;;1999.90;999.90;;;19.60;95.30;;;;;;4984829;28;20230;-85
2021/05/30 11:49:24;;;;;;;1999.90;999.90;;;19.80;95.50;;;;;;4984420;28;20388;-84
2021/05/30 11:52:11;;;;;;;1999.90;999.90;;;20.00;96.00;;;;;;4984847;28;20185;-86
2021/05/30 11:54:45;;;;;;;1999.90;999.90;;;20.00;96.50;;;;;;5000009;28;20255;-85
2021/05/30 11:57:25;;;;;;;1999.90;999.90;;;20.00;94.20;;;;;;4986556;28;20543;-85
2021/05/30 12:00:04;;;;;;;1999.90;999.90;;;20.00;96.60;;;;;;4967378;28;20241;-86
2021/05/30 12:02:42;;;;;;;1999.90;999.90;;;19.90;95.80;;;;;;4985256;28;20197;-85
2021/05/30 12:05:12;;;;;;;1999.90;999.90;;;20.10;94.40;;;;;;4986095;28;20172;-86